Time;durP1;ratioP1;P1;durP2;ratioP2;P2;SDS_P1;SDS_P2;PMS_P1;PMS_P2;Temp;Humidity;BMP_temperature;BMP_pressure;BME280_temperature;BME280_humidity;BME280_pressure;Samples;Min_cycle;Max_cycle;Signal;HPM_P1;HPM_P2
2023/03/11 00:00:18;;;;;;;383.98;182.38;;;7.40;99.90;;;;;;5076637;28;20466;-69
2023/03/11 00:02:45;;;;;;;226.63;110.07;;;7.40;99.90;;;;;;5076974;28;20032;-69
2023/03/11 00:05:23;;;;;;;229.70;102.75;;;7.50;99.90;;;;;;5076420;28;20040;-69
2023/03/11 00:07:50;;;;;;;281.95;122.40;;;7.60;99.90;;;;;;5076466;28;20032;-69
2023/03/11 00:10:20;;;;;;;276.50;124.78;;;7.60;99.90;;;;;;5076311;28;20032;-69
2023/03/11 00:12:46;;;;;;;408.45;158.68;;;7.70;99.90;;;;;;5076598;28;20043;-69
2023/03/11 00:15:12;;;;;;;467.77;174.10;;;7.80;99.90;;;;;;5076297;28;20045;-69
2023/03/11 00:17:39;;;;;;;254.63;111.60;;;7.80;99.90;;;;;;5076313;28;20374;-68
2023/03/11 00:20:06;;;;;;;255.05;107.28;;;7.70;99.90;;;;;;5076320;28;20024;-69
2023/03/11 00:22:32;;;;;;;243.52;108.53;;;7.80;99.90;;;;;;5076181;28;20036;-69
2023/03/11 00:24:58;;;;;;;260.92;120.20;;;7.90;99.90;;;;;;5075878;28;20068;-69
2023/03/11 00:27:25;;;;;;;287.05;124.13;;;7.90;99.90;;;;;;5076078;28;20029;-69
2023/03/11 00:29:50;;;;;;;337.35;141.30;;;7.90;99.90;;;;;;5076038;28;20035;-69
2023/03/11 00:32:16;;;;;;;337.35;141.80;;;8.00;99.90;;;;;;5075730;28;20037;-68
2023/03/11 00:34:42;;;;;;;291.25;126.97;;;8.00;99.90;;;;;;5075958;28;20033;-69
2023/03/11 00:37:08;;;;;;;267.48;122.68;;;8.00;99.90;;;;;;5075903;28;20154;-69
2023/03/11 00:39:34;;;;;;;252.80;115.28;;;8.00;99.90;;;;;;5075784;28;20029;-69
2023/03/11 00:42:00;;;;;;;255.18;114.97;;;8.10;99.90;;;;;;5074506;28;20055;-69
2023/03/11 00:44:26;;;;;;;267.70;119.78;;;8.20;99.90;;;;;;5075598;28;20508;-69
2023/03/11 00:46:52;;;;;;;254.27;115.15;;;8.20;99.90;;;;;;5075611;28;20083;-68
2023/03/11 00:49:18;;;;;;;241.00;109.65;;;8.20;99.90;;;;;;5074776;28;20025;-69
2023/03/11 00:51:44;;;;;;;213.25;102.90;;;8.20;99.90;;;;;;5074319;28;20104;-69
2023/03/11 00:54:10;;;;;;;215.30;101.30;;;8.30;99.90;;;;;;5074129;28;20493;-69
2023/03/11 00:56:37;;;;;;;171.60;86.40;;;8.30;99.90;;;;;;5075405;28;20067;-69
2023/03/11 00:59:03;;;;;;;180.38;92.13;;;8.30;99.90;;;;;;5074117;28;20024;-70
2023/03/11 01:01:29;;;;;;;206.57;94.70;;;8.30;99.90;;;;;;5074015;28;20041;-69
2023/03/11 01:03:56;;;;;;;166.88;79.90;;;8.30;99.90;;;;;;5075347;28;20024;-69
2023/03/11 01:06:22;;;;;;;195.85;92.95;;;8.30;99.90;;;;;;5073777;28;20032;-69
2023/03/11 01:08:48;;;;;;;176.88;85.05;;;8.30;99.90;;;;;;5075090;28;20021;-69
2023/03/11 01:11:15;;;;;;;204.32;96.80;;;8.30;99.90;;;;;;5073879;28;20423;-69
2023/03/11 01:13:41;;;;;;;188.45;90.03;;;8.40;99.90;;;;;;5075138;28;20162;-69
2023/03/11 01:16:08;;;;;;;184.48;87.10;;;8.40;99.90;;;;;;5073792;28;20059;-69
2023/03/11 01:18:34;;;;;;;146.60;74.15;;;8.40;99.90;;;;;;5075071;28;20024;-69
2023/03/11 01:21:00;;;;;;;148.98;72.25;;;8.40;99.90;;;;;;5074899;28;20086;-69
2023/03/11 01:23:26;;;;;;;143.27;71.25;;;8.30;99.90;;;;;;5074864;28;20036;-69
2023/03/11 01:25:53;;;;;;;135.10;68.03;;;8.40;99.90;;;;;;5074897;28;20067;-69
2023/03/11 01:28:19;;;;;;;139.65;68.50;;;8.30;99.90;;;;;;5074861;28;20028;-69
2023/03/11 01:30:45;;;;;;;152.38;76.15;;;8.40;99.90;;;;;;5074716;28;20033;-68
2023/03/11 01:33:17;;;;;;;136.38;70.18;;;8.30;99.90;;;;;;5073458;28;20033;-69
2023/03/11 01:35:44;;;;;;;141.82;70.05;;;8.30;99.90;;;;;;5074730;28;20539;-69
2023/03/11 01:38:11;;;;;;;152.80;74.22;;;8.30;99.90;;;;;;5074704;28;20422;-69
2023/03/11 01:40:41;;;;;;;154.68;77.35;;;8.30;99.90;;;;;;5074636;28;20071;-69
2023/03/11 01:43:40;;;;;;;129.43;63.28;;;8.30;99.90;;;;;;5107091;28;20028;-69
2023/03/11 01:46:37;;;;;;;111.00;54.42;;;8.20;99.90;;;;;;5074480;28;20413;-69
2023/03/11 01:49:11;;;;;;;105.03;51.28;;;8.10;99.90;;;;;;5074620;28;20021;-69
2023/03/11 01:51:48;;;;;;;105.32;54.13;;;8.10;99.90;;;;;;5073238;28;20116;-69
2023/03/11 01:54:26;;;;;;;92.03;48.80;;;8.10;99.90;;;;;;5073393;28;20028;-69
2023/03/11 01:56:53;;;;;;;106.13;54.33;;;8.00;99.90;;;;;;5073178;28;20058;-69
2023/03/11 01:59:24;;;;;;;101.13;52.28;;;8.00;99.90;;;;;;5073242;28;20056;-69
2023/03/11 02:02:00;;;;;;;109.40;55.85;;;8.10;99.90;;;;;;5073030;28;20105;-69
2023/03/11 02:04:28;;;;;;;99.97;49.80;;;8.10;99.90;;;;;;5106954;28;20056;-69
2023/03/11 02:06:55;;;;;;;123.68;64.53;;;8.10;99.90;;;;;;5072884;28;20029;-69
2023/03/11 02:09:23;;;;;;;119.32;62.85;;;8.00;99.90;;;;;;5073214;28;20031;-69
2023/03/11 02:11:50;;;;;;;118.28;63.70;;;8.10;99.90;;;;;;5074425;28;20021;-69
2023/03/11 02:14:17;;;;;;;119.78;62.22;;;8.10;99.90;;;;;;5107000;28;20116;-69
2023/03/11 02:16:43;;;;;;;132.10;66.57;;;8.00;99.90;;;;;;5072923;28;20086;-69
2023/03/11 02:19:16;;;;;;;116.82;62.13;;;8.10;99.90;;;;;;5073022;28;20036;-69
2023/03/11 02:21:42;;;;;;;108.30;58.20;;;8.00;99.90;;;;;;5106754;28;20032;-69
2023/03/11 02:24:34;;;;;;;106.53;57.22;;;8.00;99.90;;;;;;5074238;28;20495;-69
2023/03/11 02:27:10;;;;;;;110.13;56.47;;;8.00;99.90;;;;;;5063594;28;20051;-69
2023/03/11 02:29:37;;;;;;;118.78;61.95;;;8.10;99.90;;;;;;5072932;28;20028;-68
2023/03/11 02:32:08;;;;;;;118.50;61.63;;;8.10;99.90;;;;;;5072727;28;20044;-69
2023/03/11 02:34:38;;;;;;;99.95;53.47;;;8.10;99.90;;;;;;5072958;28;20029;-69
2023/03/11 02:37:10;;;;;;;74.40;40.65;;;8.10;99.90;;;;;;5072858;28;20198;-68
2023/03/11 02:39:41;;;;;;;64.22;37.13;;;8.20;99.90;;;;;;5072782;28;20145;-69
2023/03/11 02:42:25;;;;;;;70.50;42.10;;;8.20;99.90;;;;;;5072825;28;20117;-69
2023/03/11 02:45:12;;;;;;;;;;;8.10;99.90;;;;;;5073148;28;20028;-69
2023/03/11 02:47:39;;;;;;;67.97;37.05;;;8.00;99.90;;;;;;5072800;28;19912;-69
2023/03/11 02:50:12;;;;;;;74.95;40.15;;;8.00;99.90;;;;;;5072801;28;20111;-69
2023/03/11 02:52:39;;;;;;;76.97;44.83;;;7.90;99.90;;;;;;5072669;28;20481;-69
2023/03/11 02:55:06;;;;;;;93.80;51.90;;;7.90;99.90;;;;;;5074052;28;20037;-69
2023/03/11 02:57:33;;;;;;;99.35;55.47;;;8.00;99.90;;;;;;5074034;28;20031;-69
2023/03/11 03:00:05;;;;;;;98.95;55.97;;;8.00;99.90;;;;;;5072739;28;20028;-69
2023/03/11 03:02:31;;;;;;;109.70;58.08;;;8.00;99.90;;;;;;5073921;28;20051;-69
2023/03/11 03:04:57;;;;;;;103.93;55.95;;;8.10;99.90;;;;;;5072587;28;20039;-69
2023/03/11 03:07:23;;;;;;;94.70;51.33;;;8.10;99.90;;;;;;5072369;28;20030;-69
2023/03/11 03:09:49;;;;;;;80.68;46.60;;;8.10;99.90;;;;;;5073869;28;20377;-69
2023/03/11 03:12:15;;;;;;;91.38;47.38;;;8.10;99.90;;;;;;5074801;28;20025;-69
2023/03/11 03:14:41;;;;;;;85.57;45.33;;;8.10;99.90;;;;;;5076110;28;20476;-69
2023/03/11 03:17:09;;;;;;;80.78;43.85;;;8.10;99.90;;;;;;5075946;28;20039;-69
2023/03/11 03:19:34;;;;;;;82.35;42.70;;;8.10;99.90;;;;;;5076060;28;20029;-69
2023/03/11 03:22:01;;;;;;;81.72;44.17;;;8.00;99.90;;;;;;5076058;28;20024;-69
2023/03/11 03:24:28;;;;;;;79.40;43.38;;;8.00;99.90;;;;;;5075886;28;20029;-69
2023/03/11 03:26:54;;;;;;;87.03;48.90;;;8.00;99.90;;;;;;5075897;28;20497;-69
2023/03/11 03:29:20;;;;;;;87.65;47.28;;;8.00;99.90;;;;;;5075814;28;20031;-69
2023/03/11 03:31:48;;;;;;;84.68;47.10;;;8.10;99.90;;;;;;5059263;28;20037;-69
2023/03/11 03:34:15;;;;;;;82.28;43.78;;;8.10;99.90;;;;;;5075997;28;20090;-69
2023/03/11 03:36:41;;;;;;;80.22;43.15;;;8.10;99.90;;;;;;5076936;28;20398;-69
2023/03/11 03:39:07;;;;;;;76.95;43.00;;;8.00;99.90;;;;;;5075758;28;20477;-69
2023/03/11 03:41:35;;;;;;;76.35;42.88;;;8.00;99.90;;;;;;5075764;28;20032;-69
2023/03/11 03:44:03;;;;;;;75.45;42.10;;;8.00;99.90;;;;;;5075498;28;20040;-69
2023/03/11 03:46:30;;;;;;;75.35;43.05;;;7.90;99.90;;;;;;5075486;28;20032;-69
2023/03/11 03:48:58;;;;;;;71.25;40.58;;;7.90;99.90;;;;;;5059038;28;20123;-69
2023/03/11 03:51:25;;;;;;;72.38;40.97;;;7.90;99.90;;;;;;5076856;28;20062;-69
2023/03/11 03:54:17;;;;;;;89.10;46.55;;;7.90;99.90;;;;;;5073622;28;20477;-69
2023/03/11 03:56:44;;;;;;;84.82;46.45;;;7.80;99.90;;;;;;5075401;28;20036;-69
2023/03/11 03:59:10;;;;;;;86.28;46.90;;;7.80;99.90;;;;;;5075301;28;20032;-69
2023/03/11 04:01:40;;;;;;;89.40;48.53;;;7.80;99.90;;;;;;5075268;28;20031;-69
2023/03/11 04:04:07;;;;;;;95.93;49.58;;;7.80;99.90;;;;;;5076728;28;20082;-69
2023/03/11 04:06:34;;;;;;;95.57;51.00;;;7.90;99.90;;;;;;5075062;28;20032;-69
2023/03/11 04:09:03;;;;;;;94.07;50.42;;;7.90;99.90;;;;;;5075077;28;20052;-69
2023/03/11 04:11:32;;;;;;;87.65;47.22;;;7.90;99.90;;;;;;5075211;28;20044;-69
2023/03/11 04:14:01;;;;;;;82.88;45.38;;;7.90;99.90;;;;;;5074945;28;20024;-69
2023/03/11 04:16:27;;;;;;;79.38;41.53;;;7.90;99.90;;;;;;5071547;28;20033;-69
2023/03/11 04:18:59;;;;;;;66.75;38.72;;;7.90;99.90;;;;;;5054974;28;20040;-69
2023/03/11 04:21:26;;;;;;;68.00;36.95;;;7.90;99.90;;;;;;5054978;28;20119;-69
2023/03/11 04:23:53;;;;;;;63.92;37.92;;;7.80;99.90;;;;;;5054974;28;20021;-69
2023/03/11 04:26:23;;;;;;;70.45;39.08;;;7.90;99.90;;;;;;5070919;28;20029;-69
2023/03/11 04:28:49;;;;;;;66.60;37.58;;;7.80;99.90;;;;;;5054933;28;20032;-69
2023/03/11 04:31:15;;;;;;;65.20;36.15;;;7.70;99.90;;;;;;5054682;28;20041;-69
2023/03/11 04:33:42;;;;;;;68.65;37.58;;;7.70;99.90;;;;;;5054700;28;20025;-69
2023/03/11 04:36:10;;;;;;;61.67;35.55;;;7.70;99.90;;;;;;5054664;28;20083;-69
2023/03/11 04:38:38;;;;;;;58.20;33.28;;;7.80;99.90;;;;;;5054608;28;20033;-69
2023/03/11 04:41:06;;;;;;;65.85;35.20;;;7.70;99.90;;;;;;5054488;28;20051;-69
2023/03/11 04:43:33;;;;;;;64.97;36.13;;;7.70;99.90;;;;;;5054553;28;20029;-68
2023/03/11 04:45:59;;;;;;;69.35;38.05;;;7.60;99.90;;;;;;5054366;28;20116;-69
2023/03/11 04:48:26;;;;;;;61.60;37.05;;;7.60;99.90;;;;;;5054410;28;20055;-68
2023/03/11 04:50:54;;;;;;;60.45;36.03;;;7.60;99.90;;;;;;5087849;28;20078;-69
2023/03/11 04:53:21;;;;;;;68.45;36.85;;;7.60;99.90;;;;;;5054292;28;20552;-69
2023/03/11 04:55:47;;;;;;;68.80;38.17;;;7.60;99.90;;;;;;5087682;28;20501;-68
2023/03/11 04:58:14;;;;;;;64.95;38.80;;;7.50;99.90;;;;;;5087895;28;20025;-68
2023/03/11 05:00:40;;;;;;;64.15;37.72;;;7.50;99.90;;;;;;5054142;28;20041;-68
2023/03/11 05:03:09;;;;;;;62.20;35.88;;;7.40;99.90;;;;;;5054142;28;20044;-68
2023/03/11 05:05:35;;;;;;;54.10;31.90;;;7.40;99.90;;;;;;5055188;28;20040;-68
2023/03/11 05:08:02;;;;;;;58.10;33.53;;;7.40;99.90;;;;;;5053999;28;20036;-68
2023/03/11 05:10:29;;;;;;;57.03;33.05;;;7.40;99.90;;;;;;5053916;28;20031;-69
2023/03/11 05:12:57;;;;;;;59.95;32.55;;;7.30;99.90;;;;;;5070250;28;20041;-68
2023/03/11 05:15:30;;;;;;;53.92;30.50;;;7.30;99.90;;;;;;5062990;28;20515;-68
2023/03/11 05:17:58;;;;;;;54.58;32.05;;;7.30;99.90;;;;;;5073783;28;20047;-68
2023/03/11 05:20:24;;;;;;;73.80;39.95;;;7.40;99.90;;;;;;5073639;28;20478;-68
2023/03/11 05:22:50;;;;;;;126.00;58.83;;;7.40;99.90;;;;;;5073655;28;20024;-68
2023/03/11 05:25:16;;;;;;;133.55;63.33;;;7.50;99.90;;;;;;5073571;28;20033;-68
2023/03/11 05:27:43;;;;;;;111.13;58.17;;;7.40;99.90;;;;;;5073617;28;20035;-68
2023/03/11 05:30:10;;;;;;;119.53;58.38;;;7.30;99.90;;;;;;5073575;28;20190;-68
2023/03/11 05:32:38;;;;;;;118.70;60.28;;;7.30;99.90;;;;;;5073463;28;20048;-68
2023/03/11 05:35:06;;;;;;;119.57;56.53;;;7.30;99.90;;;;;;5073255;28;20043;-68
2023/03/11 05:37:32;;;;;;;104.90;52.00;;;7.40;99.90;;;;;;5073385;28;20033;-68
2023/03/11 05:40:01;;;;;;;90.53;48.78;;;7.40;99.90;;;;;;5073472;28;20390;-68
2023/03/11 05:42:26;;;;;;;79.10;43.30;;;7.30;99.90;;;;;;5074831;28;20056;-68
2023/03/11 05:44:55;;;;;;;226.32;70.10;;;7.40;99.90;;;;;;5073290;28;20089;-68
2023/03/11 05:47:22;;;;;;;70.13;39.50;;;7.40;99.90;;;;;;5057076;28;20029;-68
2023/03/11 05:49:49;;;;;;;63.03;36.83;;;7.40;99.90;;;;;;5073277;28;20032;-68
2023/03/11 05:52:17;;;;;;;72.13;37.05;;;7.40;99.90;;;;;;5073453;28;20029;-68
2023/03/11 05:54:44;;;;;;;106.03;49.60;;;7.40;99.90;;;;;;5073302;28;20355;-68
2023/03/11 05:57:10;;;;;;;104.68;53.75;;;7.50;99.90;;;;;;5073093;28;20133;-68
2023/03/11 05:59:36;;;;;;;113.00;58.75;;;7.60;99.90;;;;;;5073242;28;20028;-68
2023/03/11 06:02:04;;;;;;;108.28;56.78;;;7.70;99.90;;;;;;5073312;28;20033;-68
2023/03/11 06:04:30;;;;;;;96.63;54.53;;;8.20;99.90;;;;;;5073152;28;20094;-68
2023/03/11 06:06:58;;;;;;;110.30;71.05;;;8.50;99.90;;;;;;5056626;28;20047;-68
2023/03/11 06:09:27;;;;;;;93.80;57.65;;;8.80;99.90;;;;;;5073115;28;20514;-68
2023/03/11 06:11:54;;;;;;;76.43;43.42;;;9.10;99.90;;;;;;5073029;28;20028;-69
2023/03/11 06:14:23;;;;;;;86.95;46.03;;;9.30;99.90;;;;;;5073105;28;20029;-68
2023/03/11 06:16:50;;;;;;;88.47;50.45;;;9.40;99.90;;;;;;5073303;28;20106;-68
2023/03/11 06:19:19;;;;;;;94.60;53.78;;;9.40;99.90;;;;;;5073173;28;20071;-69
2023/03/11 06:21:48;;;;;;;97.10;53.65;;;9.30;99.90;;;;;;5073065;28;20111;-69
2023/03/11 06:24:15;;;;;;;108.47;56.85;;;9.20;99.90;;;;;;5073099;28;20048;-69
2023/03/11 06:26:42;;;;;;;106.15;59.08;;;9.10;99.90;;;;;;5056228;28;20035;-69
2023/03/11 06:29:13;;;;;;;91.32;48.88;;;9.20;99.90;;;;;;5072972;28;20031;-69
2023/03/11 06:31:40;;;;;;;91.88;48.33;;;9.30;99.90;;;;;;5072713;28;20041;-68
2023/03/11 06:34:10;;;;;;;80.63;45.60;;;9.40;99.90;;;;;;5072924;28;20035;-69
2023/03/11 06:36:37;;;;;;;88.85;47.85;;;9.40;99.90;;;;;;5074164;28;20043;-69
2023/03/11 06:39:03;;;;;;;90.60;47.70;;;9.40;99.90;;;;;;5072899;28;20028;-69
2023/03/11 06:41:33;;;;;;;85.38;47.67;;;9.20;99.90;;;;;;5056349;28;20029;-69
2023/03/11 06:43:59;;;;;;;96.53;50.70;;;9.30;99.90;;;;;;5072813;28;20263;-69
2023/03/11 06:46:27;;;;;;;88.30;47.45;;;9.10;99.90;;;;;;5072701;28;20339;-69
2023/03/11 06:48:54;;;;;;;83.30;46.33;;;9.00;99.90;;;;;;5059545;28;20036;-69
2023/03/11 06:51:22;;;;;;;88.57;47.25;;;9.00;99.90;;;;;;5076590;28;20033;-69
2023/03/11 06:53:51;;;;;;;82.13;46.40;;;9.00;99.90;;;;;;5059880;28;20079;-69
2023/03/11 06:56:20;;;;;;;78.13;45.55;;;9.00;99.90;;;;;;5076618;28;20028;-70
2023/03/11 06:58:53;;;;;;;83.63;42.65;;;9.00;99.90;;;;;;5076324;28;20447;-69
2023/03/11 07:01:22;;;;;;;78.78;43.90;;;9.00;99.90;;;;;;5059765;28;20202;-69
2023/03/11 07:03:49;;;;;;;75.40;42.25;;;8.90;99.90;;;;;;5076376;28;20044;-69
2023/03/11 07:06:21;;;;;;;73.97;41.55;;;8.90;99.90;;;;;;5059585;28;20037;-69
2023/03/11 07:08:49;;;;;;;76.85;42.38;;;9.10;99.90;;;;;;5076188;28;20552;-69
2023/03/11 07:11:19;;;;;;;108.60;57.88;;;9.10;99.90;;;;;;5077510;28;20021;-69
2023/03/11 07:13:45;;;;;;;107.25;59.33;;;9.20;99.90;;;;;;5076213;28;20054;-69
2023/03/11 07:16:17;;;;;;;78.15;45.85;;;9.20;99.90;;;;;;5077219;28;20439;-69
2023/03/11 07:18:45;;;;;;;79.20;40.42;;;9.20;99.90;;;;;;5110063;28;20477;-69
2023/03/11 07:21:14;;;;;;;72.72;41.33;;;9.30;99.90;;;;;;5075954;28;20040;-69
2023/03/11 07:23:40;;;;;;;68.68;38.13;;;9.30;99.90;;;;;;5077215;28;20107;-69
2023/03/11 07:26:11;;;;;;;66.22;37.40;;;9.20;99.90;;;;;;5077152;28;20473;-70
2023/03/11 07:28:38;;;;;;;66.68;38.40;;;9.20;99.90;;;;;;5077344;28;20032;-69
2023/03/11 07:31:13;;;;;;;75.68;40.88;;;9.40;99.90;;;;;;5076935;28;20038;-69
2023/03/11 07:33:39;;;;;;;71.47;42.25;;;9.50;99.90;;;;;;5075834;28;20036;-69
2023/03/11 07:36:10;;;;;;;81.40;45.63;;;9.60;99.90;;;;;;5076987;28;20086;-69
2023/03/11 07:38:36;;;;;;;85.25;46.80;;;9.60;99.90;;;;;;5077161;28;20536;-70
2023/03/11 07:41:03;;;;;;;78.75;44.80;;;9.70;99.90;;;;;;5075655;28;20037;-69
2023/03/11 07:43:29;;;;;;;79.07;44.53;;;9.70;99.90;;;;;;5076998;28;20036;-69
2023/03/11 07:46:22;;;;;;;80.78;44.38;;;9.80;99.90;;;;;;5075365;28;20036;-69
2023/03/11 07:48:49;;;;;;;81.75;44.28;;;9.80;99.90;;;;;;5075777;28;20070;-69
2023/03/11 07:51:27;;;;;;;76.07;44.13;;;9.80;99.90;;;;;;5076784;28;20032;-69
2023/03/11 07:53:55;;;;;;;73.80;41.72;;;9.80;99.90;;;;;;5076769;28;20417;-69
2023/03/11 07:56:22;;;;;;;68.90;41.13;;;9.90;99.90;;;;;;5076587;28;20032;-69
2023/03/11 07:58:49;;;;;;;73.07;42.88;;;9.90;99.90;;;;;;5076343;28;20024;-69
2023/03/11 08:01:20;;;;;;;106.05;57.45;;;9.90;99.90;;;;;;5076534;28;20129;-69
2023/03/11 08:03:48;;;;;;;102.90;52.33;;;9.90;99.90;;;;;;5075340;28;20119;-69
2023/03/11 08:06:17;;;;;;;91.55;45.65;;;10.00;99.90;;;;;;5075086;28;20040;-69
2023/03/11 08:08:43;;;;;;;122.45;52.72;;;10.00;99.90;;;;;;5076352;28;20048;-69
2023/03/11 08:11:12;;;;;;;83.18;44.88;;;10.10;99.90;;;;;;5076474;28;20035;-69
2023/03/11 08:13:39;;;;;;;79.32;48.58;;;10.20;99.90;;;;;;5076359;28;20504;-69
2023/03/11 08:16:07;;;;;;;84.20;48.40;;;10.20;99.90;;;;;;5076298;28;20535;-69
2023/03/11 08:18:34;;;;;;;83.47;49.53;;;10.30;99.90;;;;;;5076281;28;20118;-69
2023/03/11 08:21:07;;;;;;;115.78;55.85;;;10.30;99.90;;;;;;5076192;28;20032;-69
2023/03/11 08:23:33;;;;;;;120.57;57.35;;;10.40;99.90;;;;;;5076106;28;20486;-69
2023/03/11 08:26:08;;;;;;;110.20;55.75;;;10.50;99.90;;;;;;5075987;28;20040;-69
2023/03/11 08:28:34;;;;;;;116.68;60.13;;;10.50;99.90;;;;;;5076157;28;20028;-69
2023/03/11 08:31:01;;;;;;;107.80;62.22;;;10.40;99.90;;;;;;5075743;28;20574;-69
2023/03/11 08:33:27;;;;;;;109.28;59.05;;;10.40;99.90;;;;;;5074753;28;20035;-69
2023/03/11 08:35:53;;;;;;;105.78;58.78;;;10.50;99.90;;;;;;5074313;28;20025;-69
2023/03/11 08:38:21;;;;;;;104.38;60.17;;;10.60;99.90;;;;;;5075441;28;20043;-69
2023/03/11 08:40:46;;;;;;;114.30;63.63;;;10.70;99.90;;;;;;5075792;28;20048;-69
2023/03/11 08:43:14;;;;;;;132.73;71.53;;;10.70;99.90;;;;;;5075588;28;20032;-69
2023/03/11 08:45:40;;;;;;;135.82;70.75;;;10.70;99.90;;;;;;5074280;28;20106;-69
2023/03/11 08:48:09;;;;;;;128.18;69.85;;;10.80;99.90;;;;;;5075612;28;20099;-69
2023/03/11 08:50:35;;;;;;;109.78;62.67;;;10.80;99.90;;;;;;5074268;28;20040;-69
2023/03/11 08:53:02;;;;;;;116.18;63.13;;;10.90;99.90;;;;;;5075533;28;20382;-69
2023/03/11 08:55:28;;;;;;;104.43;58.90;;;10.90;99.90;;;;;;5075489;28;20478;-69
2023/03/11 08:57:55;;;;;;;119.70;66.57;;;11.00;99.90;;;;;;5075366;28;20083;-69
2023/03/11 09:00:21;;;;;;;133.68;73.40;;;11.10;99.90;;;;;;5075369;28;20054;-69
2023/03/11 09:02:48;;;;;;;108.72;60.20;;;11.10;99.90;;;;;;5091044;28;20021;-69
2023/03/11 09:05:14;;;;;;;107.20;58.22;;;11.10;99.90;;;;;;5075138;28;20035;-69
2023/03/11 09:07:40;;;;;;;102.05;58.00;;;11.00;99.90;;;;;;5075309;28;20462;-69
2023/03/11 09:10:07;;;;;;;131.35;71.38;;;10.90;99.90;;;;;;5074610;28;20081;-69
2023/03/11 09:12:33;;;;;;;122.80;67.50;;;10.80;99.90;;;;;;5075169;28;20021;-69
2023/03/11 09:14:59;;;;;;;140.15;73.50;;;10.70;99.90;;;;;;5074851;28;20416;-69
2023/03/11 09:17:25;;;;;;;136.13;72.13;;;10.60;99.90;;;;;;5073624;28;20073;-69
2023/03/11 09:19:51;;;;;;;134.98;74.07;;;10.50;99.90;;;;;;5074928;28;20028;-69
2023/03/11 09:22:17;;;;;;;35.35;20.77;;;10.30;99.90;;;;;;5074869;28;20031;-69
2023/03/11 09:24:43;;;;;;;60.33;30.35;;;10.20;99.90;;;;;;5074892;28;20035;-69
2023/03/11 09:27:09;;;;;;;34.45;16.65;;;9.90;99.90;;;;;;5074855;28;20040;-69
2023/03/11 09:29:35;;;;;;;10.40;5.72;;;9.50;99.90;;;;;;5074934;28;20072;-69
2023/03/11 09:32:01;;;;;;;15.30;4.97;;;9.20;99.90;;;;;;5074729;28;20091;-69
2023/03/11 09:34:27;;;;;;;13.57;3.35;;;8.90;99.90;;;;;;5073141;28;20037;-69
2023/03/11 09:36:53;;;;;;;14.50;3.47;;;8.60;99.90;;;;;;5074803;28;20036;-70
2023/03/11 09:39:19;;;;;;;7.68;2.15;;;8.10;99.90;;;;;;5073507;28;20032;-69
2023/03/11 09:41:56;;;;;;;3.53;1.98;;;7.40;99.90;;;;;;5073348;28;20032;-69
2023/03/11 09:44:33;;;;;;;4.80;2.40;;;7.30;99.90;;;;;;5090130;28;20055;-69
2023/03/11 09:47:09;;;;;;;5.60;3.35;;;7.00;99.90;;;;;;5074628;28;20058;-70
2023/03/11 09:50:03;;;;;;;4.60;2.13;;;6.80;99.90;;;;;;5074511;28;20024;-70
2023/03/11 09:52:50;;;;;;;3.13;1.75;;;6.80;99.90;;;;;;5074622;28;20028;-69
2023/03/11 09:55:41;;;;;;;1.13;0.90;;;6.60;99.90;;;;;;5074591;28;20036;-70
2023/03/11 09:58:11;;;;;;;2.58;1.42;;;6.40;99.90;;;;;;5074525;28;20090;-69
2023/03/11 10:00:39;;;;;;;1.77;1.15;;;6.30;99.90;;;;;;5074489;28;20036;-69
2023/03/11 10:03:12;;;;;;;1.92;0.90;;;6.40;99.90;;;;;;5074307;28;20032;-70
2023/03/11 10:05:40;;;;;;;2.22;0.60;;;6.20;99.90;;;;;;5074190;28;20032;-69
2023/03/11 10:08:25;;;;;;;1.92;0.73;;;6.30;99.90;;;;;;5074420;28;20020;-70
2023/03/11 10:11:09;;;;;;;18.02;3.00;;;6.20;99.90;;;;;;5074352;28;20029;-69
2023/03/11 10:13:49;;;;;;;2.47;1.60;;;6.20;99.90;;;;;;5074492;28;20465;-69
2023/03/11 10:16:28;;;;;;;5.60;0.77;;;6.10;99.90;;;;;;5074254;28;20089;-69
2023/03/11 10:19:29;;;;;;;0.70;0.60;;;6.20;99.90;;;;;;5074369;28;20051;-69
2023/03/11 10:22:32;;;;;;;1.77;0.80;;;6.10;99.90;;;;;;5053649;28;20029;-69
2023/03/11 10:25:36;;;;;;;3.42;2.33;;;6.10;99.90;;;;;;5055778;28;20496;-69
2023/03/11 10:28:11;;;;;;;1.42;0.98;;;6.00;99.90;;;;;;5040698;28;20068;-69
2023/03/11 10:30:48;;;;;;;2.38;1.10;;;6.00;99.90;;;;;;5055712;28;20120;-67
2023/03/11 10:33:46;;;;;;;1.83;1.10;;;6.00;99.90;;;;;;5055749;28;20029;-69
2023/03/11 10:36:26;;;;;;;3.28;2.45;;;5.90;99.90;;;;;;5053885;28;20045;-69
2023/03/11 10:38:53;;;;;;;5.63;2.30;;;5.80;99.90;;;;;;5055764;28;20029;-69
2023/03/11 10:41:40;;;;;;;3.88;2.47;;;6.00;99.90;;;;;;5055747;28;20344;-69
2023/03/11 10:44:15;;;;;;;1.33;1.10;;;6.00;99.90;;;;;;5055576;28;20048;-69
2023/03/11 10:46:41;;;;;;;4.45;1.48;;;6.00;99.90;;;;;;5055542;28;20120;-69
2023/03/11 10:49:15;;;;;;;1.05;0.80;;;6.10;99.90;;;;;;5055677;28;20557;-69
2023/03/11 10:51:45;;;;;;;2.00;0.93;;;6.10;99.90;;;;;;5055525;28;20040;-69
2023/03/11 10:54:32;;;;;;;5.03;1.27;;;6.10;99.90;;;;;;5055408;28;20028;-69
2023/03/11 10:57:00;;;;;;;9.88;3.10;;;6.10;99.90;;;;;;5076242;28;20041;-69
2023/03/11 10:59:31;;;;;;;1.00;0.70;;;6.20;99.90;;;;;;5077627;28;20021;-69
2023/03/11 11:02:19;;;;;;;4.32;1.05;;;6.20;99.90;;;;;;5077711;28;20024;-69
2023/03/11 11:04:45;;;;;;;1.83;0.90;;;6.20;99.90;;;;;;5077696;28;20028;-70
2023/03/11 11:07:31;;;;;;;4.20;0.95;;;6.20;99.90;;;;;;5077328;28;20035;-69
2023/03/11 11:10:12;;;;;;;2.28;1.17;;;6.20;99.90;;;;;;5077121;28;20020;-70
2023/03/11 11:13:09;;;;;;;1.83;0.95;;;6.30;99.90;;;;;;5077923;28;20062;-69
2023/03/11 11:15:39;;;;;;;1.58;1.08;;;6.30;99.90;;;;;;5078189;28;20390;-70
2023/03/11 11:18:22;;;;;;;0.80;0.70;;;6.40;99.90;;;;;;5078246;28;20109;-69
2023/03/11 11:21:01;;;;;;;3.17;1.10;;;6.50;99.90;;;;;;5078204;28;20055;-69
2023/03/11 11:23:45;;;;;;;1.52;0.75;;;6.60;99.90;;;;;;5077965;28;20041;-69
2023/03/11 11:26:17;;;;;;;1.77;0.95;;;6.40;99.90;;;;;;5077768;28;20033;-69
2023/03/11 11:28:43;;;;;;;1.65;0.47;;;6.40;99.90;;;;;;5078065;28;20028;-69
2023/03/11 11:31:22;;;;;;;3.35;0.70;;;6.50;99.90;;;;;;5077726;28;20398;-69
2023/03/11 11:33:53;;;;;;;9.93;5.10;;;6.50;99.90;;;;;;5077186;28;20055;-70
2023/03/11 11:36:28;;;;;;;12.63;6.95;;;6.60;99.90;;;;;;5077995;28;20029;-69
2023/03/11 11:38:55;;;;;;;47.28;24.38;;;6.50;99.90;;;;;;5077480;28;20036;-69
2023/03/11 11:41:23;;;;;;;8.77;4.35;;;6.50;99.90;;;;;;5072397;28;20033;-69
2023/03/11 11:43:53;;;;;;;7.85;2.67;;;6.40;99.90;;;;;;5077545;28;20444;-69
2023/03/11 11:46:44;;;;;;;17.10;8.43;;;6.50;99.90;;;;;;5076993;28;20074;-69
2023/03/11 11:49:33;;;;;;;29.40;13.55;;;6.60;99.90;;;;;;5076631;28;20029;-70
2023/03/11 11:52:24;;;;;;;6.82;3.35;;;6.60;99.90;;;;;;5076781;28;20466;-69
2023/03/11 11:55:01;;;;;;;2.80;1.15;;;6.60;99.90;;;;;;5076737;28;20025;-69
2023/03/11 11:57:28;;;;;;;10.38;5.95;;;6.60;99.90;;;;;;5076873;28;20063;-69
2023/03/11 11:59:54;;;;;;;34.53;17.52;;;6.40;99.90;;;;;;5076627;28;20032;-69
2023/03/11 12:02:39;;;;;;;66.30;36.80;;;6.30;99.90;;;;;;5076479;28;20524;-69
2023/03/11 12:05:29;;;;;;;120.13;60.60;;;6.40;99.90;;;;;;5076333;28;20387;-69
2023/03/11 12:08:08;;;;;;;49.27;23.67;;;6.50;99.90;;;;;;5076455;28;20035;-69
2023/03/11 12:11:21;;;;;;;14.23;7.47;;;6.70;99.90;;;;;;5076426;28;20024;-69
2023/03/11 12:14:03;;;;;;;11.63;4.82;;;6.80;99.90;;;;;;5071363;28;20122;-69
2023/03/11 12:16:35;;;;;;;8.68;3.75;;;6.80;99.90;;;;;;5076243;28;20039;-70
2023/03/11 12:19:10;;;;;;;8.35;3.03;;;6.80;99.90;;;;;;5076261;28;20032;-69
2023/03/11 12:22:01;;;;;;;40.97;17.88;;;6.90;99.90;;;;;;5076274;28;20768;-69
2023/03/11 12:24:47;;;;;;;29.45;12.80;;;6.90;99.90;;;;;;5076112;28;20020;-70
2023/03/11 12:27:24;;;;;;;18.63;7.80;;;6.80;99.90;;;;;;5076392;28;20365;-70
2023/03/11 12:30:09;;;;;;;12.23;5.32;;;6.90;99.90;;;;;;5076121;28;20025;-69
2023/03/11 12:32:40;;;;;;;14.63;6.28;;;6.90;99.90;;;;;;5075946;28;20047;-70
2023/03/11 12:35:28;;;;;;;22.65;7.55;;;6.90;99.90;;;;;;5075984;28;20021;-70
2023/03/11 12:38:15;;;;;;;11.32;4.80;;;7.00;99.90;;;;;;5076007;28;20425;-69
2023/03/11 12:40:41;;;;;;;7.18;3.50;;;6.90;99.90;;;;;;5075866;28;20028;-69
2023/03/11 12:43:32;;;;;;;12.30;3.50;;;6.70;99.90;;;;;;5075783;28;20032;-69
2023/03/11 12:46:09;;;;;;;8.52;3.13;;;6.50;99.90;;;;;;5074621;28;20470;-69
2023/03/11 12:48:42;;;;;;;16.27;4.68;;;6.70;99.90;;;;;;5075642;28;20495;-69
2023/03/11 12:51:27;;;;;;;4.40;2.95;;;6.70;99.90;;;;;;5075664;28;20063;-70
2023/03/11 12:53:54;;;;;;;5.22;2.50;;;6.70;99.90;;;;;;5075544;28;20302;-70